sensor_id;sensor_type;location;lat;lon;timestamp;temperature;humidity
1049;DHT22;513;51.444;7.196;2022-10-31T00:01:12;14.70;99.90
1049;DHT22;513;51.444;7.196;2022-10-31T00:03:39;14.80;99.90
1049;DHT22;513;51.444;7.196;2022-10-31T00:06:05;14.80;99.90
1049;DHT22;513;51.444;7.196;2022-10-31T00:08:32;14.80;99.90
1049;DHT22;513;51.444;7.196;2022-10-31T00:10:59;14.80;99.90
1049;DHT22;513;51.444;7.196;2022-10-31T00:13:26;14.80;99.90
1049;DHT22;513;51.444;7.196;2022-10-31T00:15:52;14.90;99.90
1049;DHT22;513;51.444;7.196;2022-10-31T00:18:20;14.90;99.90
1049;DHT22;513;51.444;7.196;2022-10-31T00:20:47;14.90;99.90
1049;DHT22;513;51.444;7.196;2022-10-31T00:23:13;14.90;99.90
1049;DHT22;513;51.444;7.196;2022-10-31T00:25:40;14.90;99.90
1049;DHT22;513;51.444;7.196;2022-10-31T00:28:08;14.90;99.90
1049;DHT22;513;51.444;7.196;2022-10-31T00:30:37;14.90;99.90
1049;DHT22;513;51.444;7.196;2022-10-31T00:33:04;14.90;99.90
1049;DHT22;513;51.444;7.196;2022-10-31T00:35:32;14.90;99.90
1049;DHT22;513;51.444;7.196;2022-10-31T00:37:59;14.90;99.90
1049;DHT22;513;51.444;7.196;2022-10-31T00:40:26;15.00;99.90
1049;DHT22;513;51.444;7.196;2022-10-31T00:42:52;14.90;99.90
1049;DHT22;513;51.444;7.196;2022-10-31T00:45:19;14.90;99.90
1049;DHT22;513;51.444;7.196;2022-10-31T00:47:46;14.90;99.90
1049;DHT22;513;51.444;7.196;2022-10-31T00:50:12;14.90;99.90
1049;DHT22;513;51.444;7.196;2022-10-31T00:52:40;14.90;99.90
1049;DHT22;513;51.444;7.196;2022-10-31T00:55:07;14.90;99.90
1049;DHT22;513;51.444;7.196;2022-10-31T00:57:34;14.90;99.90
1049;DHT22;513;51.444;7.196;2022-10-31T01:00:00;14.90;99.90
1049;DHT22;513;51.444;7.196;2022-10-31T01:02:27;14.90;99.90
1049;DHT22;513;51.444;7.196;2022-10-31T01:04:53;14.90;99.90
1049;DHT22;513;51.444;7.196;2022-10-31T01:07:20;14.90;99.90
1049;DHT22;513;51.444;7.196;2022-10-31T01:09:48;14.90;99.90
1049;DHT22;513;51.444;7.196;2022-10-31T01:12:14;14.90;99.90
1049;DHT22;513;51.444;7.196;2022-10-31T01:14:43;14.90;99.90
1049;DHT22;513;51.444;7.196;2022-10-31T01:17:10;14.90;99.90
1049;DHT22;513;51.444;7.196;2022-10-31T01:19:36;14.80;99.90
1049;DHT22;513;51.444;7.196;2022-10-31T01:22:03;14.70;99.90
1049;DHT22;513;51.444;7.196;2022-10-31T01:24:29;14.70;99.90
1049;DHT22;513;51.444;7.196;2022-10-31T01:26:58;14.70;99.90
1049;DHT22;513;51.444;7.196;2022-10-31T01:29:24;14.70;99.90
1049;DHT22;513;51.444;7.196;2022-10-31T01:31:51;14.70;99.90
1049;DHT22;513;51.444;7.196;2022-10-31T01:34:18;14.70;99.90
1049;DHT22;513;51.444;7.196;2022-10-31T01:36:45;14.70;99.90
1049;DHT22;513;51.444;7.196;2022-10-31T01:39:17;14.60;99.90
1049;DHT22;513;51.444;7.196;2022-10-31T01:41:46;14.70;99.90
1049;DHT22;513;51.444;7.196;2022-10-31T01:47:21;14.60;99.90
1049;DHT22;513;51.444;7.196;2022-10-31T01:49:54;14.60;99.90
1049;DHT22;513;51.444;7.196;2022-10-31T01:52:24;14.50;99.90
1049;DHT22;513;51.444;7.196;2022-10-31T01:54:57;14.50;99.90
1049;DHT22;513;51.444;7.196;2022-10-31T01:57:25;14.60;99.90
1049;DHT22;513;51.444;7.196;2022-10-31T01:59:56;14.50;99.90
1049;DHT22;513;51.444;7.196;2022-10-31T02:02:25;14.40;99.90
1049;DHT22;513;51.444;7.196;2022-10-31T02:04:54;14.30;99.90
1049;DHT22;513;51.444;7.196;2022-10-31T02:07:24;14.30;99.90
1049;DHT22;513;51.444;7.196;2022-10-31T02:09:53;14.40;99.90
1049;DHT22;513;51.444;7.196;2022-10-31T02:12:20;14.40;99.90
1049;DHT22;513;51.444;7.196;2022-10-31T02:14:46;14.40;99.90
1049;DHT22;513;51.444;7.196;2022-10-31T02:17:13;14.40;99.90
1049;DHT22;513;51.444;7.196;2022-10-31T02:19:46;14.40;99.90
1049;DHT22;513;51.444;7.196;2022-10-31T02:22:22;14.40;99.90
1049;DHT22;513;51.444;7.196;2022-10-31T02:24:59;14.40;99.90
1049;DHT22;513;51.444;7.196;2022-10-31T02:27:51;14.40;99.90
1049;DHT22;513;51.444;7.196;2022-10-31T02:30:24;14.30;99.90
1049;DHT22;513;51.444;7.196;2022-10-31T02:33:07;14.30;99.90
1049;DHT22;513;51.444;7.196;2022-10-31T02:35:46;14.20;99.90
1049;DHT22;513;51.444;7.196;2022-10-31T02:38:28;14.20;99.90
1049;DHT22;513;51.444;7.196;2022-10-31T02:41:01;14.10;99.90
1049;DHT22;513;51.444;7.196;2022-10-31T02:43:34;14.00;99.90
1049;DHT22;513;51.444;7.196;2022-10-31T02:46:07;14.00;99.90
1049;DHT22;513;51.444;7.196;2022-10-31T02:48:39;13.90;99.90
1049;DHT22;513;51.444;7.196;2022-10-31T02:51:08;13.80;99.90
1049;DHT22;513;51.444;7.196;2022-10-31T02:53:36;13.80;99.90
1049;DHT22;513;51.444;7.196;2022-10-31T02:56:06;13.80;99.90
1049;DHT22;513;51.444;7.196;2022-10-31T02:58:38;13.80;99.90
1049;DHT22;513;51.444;7.196;2022-10-31T03:01:21;13.80;99.90
1049;DHT22;513;51.444;7.196;2022-10-31T03:04:22;13.80;99.90
1049;DHT22;513;51.444;7.196;2022-10-31T03:06:57;13.80;99.90
1049;DHT22;513;51.444;7.196;2022-10-31T03:09:33;13.80;99.90
1049;DHT22;513;51.444;7.196;2022-10-31T03:12:05;13.80;99.90
1049;DHT22;513;51.444;7.196;2022-10-31T03:14:40;13.80;99.90
1049;DHT22;513;51.444;7.196;2022-10-31T03:17:12;13.80;99.90
1049;DHT22;513;51.444;7.196;2022-10-31T03:19:43;13.80;99.90
1049;DHT22;513;51.444;7.196;2022-10-31T03:22:16;13.80;99.90
1049;DHT22;513;51.444;7.196;2022-10-31T03:24:43;13.80;99.90
1049;DHT22;513;51.444;7.196;2022-10-31T03:27:14;13.80;99.90
1049;DHT22;513;51.444;7.196;2022-10-31T03:29:44;13.80;99.90
1049;DHT22;513;51.444;7.196;2022-10-31T03:32:14;13.80;99.90
1049;DHT22;513;51.444;7.196;2022-10-31T03:34:45;13.90;99.90
1049;DHT22;513;51.444;7.196;2022-10-31T03:37:15;13.90;99.90
1049;DHT22;513;51.444;7.196;2022-10-31T03:39:45;13.90;99.90
1049;DHT22;513;51.444;7.196;2022-10-31T03:42:15;13.90;99.90
1049;DHT22;513;51.444;7.196;2022-10-31T03:44:48;13.90;99.90
1049;DHT22;513;51.444;7.196;2022-10-31T03:47:17;13.90;99.90
1049;DHT22;513;51.444;7.196;2022-10-31T03:49:45;13.90;99.90
1049;DHT22;513;51.444;7.196;2022-10-31T03:52:18;14.00;99.90
1049;DHT22;513;51.444;7.196;2022-10-31T03:54:48;14.00;99.90
1049;DHT22;513;51.444;7.196;2022-10-31T03:57:21;13.90;99.90
1049;DHT22;513;51.444;7.196;2022-10-31T03:59:53;13.90;99.90
1049;DHT22;513;51.444;7.196;2022-10-31T04:02:25;13.80;99.90
1049;DHT22;513;51.444;7.196;2022-10-31T04:04:56;13.80;99.90
1049;DHT22;513;51.444;7.196;2022-10-31T04:07:26;13.70;99.90
1049;DHT22;513;51.444;7.196;2022-10-31T04:09:55;13.60;99.90
1049;DHT22;513;51.444;7.196;2022-10-31T04:12:23;13.50;99.90
1049;DHT22;513;51.444;7.196;2022-10-31T04:14:52;13.50;99.90
1049;DHT22;513;51.444;7.196;2022-10-31T04:17:21;13.40;99.90
1049;DHT22;513;51.444;7.196;2022-10-31T04:19:49;13.40;99.90
1049;DHT22;513;51.444;7.196;2022-10-31T04:22:17;13.30;99.90
1049;DHT22;513;51.444;7.196;2022-10-31T04:24:44;13.20;99.90
1049;DHT22;513;51.444;7.196;2022-10-31T04:27:11;13.20;99.90
1049;DHT22;513;51.444;7.196;2022-10-31T04:29:37;13.20;99.90
1049;DHT22;513;51.444;7.196;2022-10-31T04:32:04;13.20;99.90
1049;DHT22;513;51.444;7.196;2022-10-31T04:34:31;13.10;99.90
1049;DHT22;513;51.444;7.196;2022-10-31T04:36:57;13.10;99.90
1049;DHT22;513;51.444;7.196;2022-10-31T04:39:25;13.10;99.90
1049;DHT22;513;51.444;7.196;2022-10-31T04:41:52;13.00;99.90
1049;DHT22;513;51.444;7.196;2022-10-31T04:44:19;13.10;99.90
1049;DHT22;513;51.444;7.196;2022-10-31T04:46:45;13.00;99.90
1049;DHT22;513;51.444;7.196;2022-10-31T04:49:12;13.00;99.90
1049;DHT22;513;51.444;7.196;2022-10-31T04:51:39;13.00;99.90
1049;DHT22;513;51.444;7.196;2022-10-31T04:54:05;13.00;99.90
1049;DHT22;513;51.444;7.196;2022-10-31T04:56:33;12.90;99.90
1049;DHT22;513;51.444;7.196;2022-10-31T04:59:00;12.90;99.90
1049;DHT22;513;51.444;7.196;2022-10-31T05:01:27;13.00;99.90
1049;DHT22;513;51.444;7.196;2022-10-31T05:03:54;12.90;99.90
1049;DHT22;513;51.444;7.196;2022-10-31T05:06:21;12.90;99.90
1049;DHT22;513;51.444;7.196;2022-10-31T05:08:47;12.90;99.90
1049;DHT22;513;51.444;7.196;2022-10-31T05:11:14;12.90;99.90
1049;DHT22;513;51.444;7.196;2022-10-31T05:13:42;12.90;99.90
1049;DHT22;513;51.444;7.196;2022-10-31T05:16:09;12.90;99.90
1049;DHT22;513;51.444;7.196;2022-10-31T05:18:36;12.90;99.90
1049;DHT22;513;51.444;7.196;2022-10-31T05:21:02;12.90;99.90
1049;DHT22;513;51.444;7.196;2022-10-31T05:23:29;12.90;99.90
1049;DHT22;513;51.444;7.196;2022-10-31T05:25:56;12.80;99.90
1049;DHT22;513;51.444;7.196;2022-10-31T05:28:22;12.80;99.90
1049;DHT22;513;51.444;7.196;2022-10-31T05:30:50;12.80;99.90
1049;DHT22;513;51.444;7.196;2022-10-31T05:33:17;12.60;99.90
1049;DHT22;513;51.444;7.196;2022-10-31T05:35:44;12.40;99.90
1049;DHT22;513;51.444;7.196;2022-10-31T05:38:10;12.40;99.90
1049;DHT22;513;51.444;7.196;2022-10-31T05:40:37;12.40;99.90
1049;DHT22;513;51.444;7.196;2022-10-31T05:43:03;12.40;99.90
1049;DHT22;513;51.444;7.196;2022-10-31T05:45:30;12.40;99.90
1049;DHT22;513;51.444;7.196;2022-10-31T05:47:59;12.50;99.90
1049;DHT22;513;51.444;7.196;2022-10-31T05:50:27;12.50;99.90
1049;DHT22;513;51.444;7.196;2022-10-31T05:52:55;12.50;99.90
1049;DHT22;513;51.444;7.196;2022-10-31T05:55:22;12.60;99.90
1049;DHT22;513;51.444;7.196;2022-10-31T05:57:50;12.60;99.90
1049;DHT22;513;51.444;7.196;2022-10-31T06:00:17;12.60;99.90
1049;DHT22;513;51.444;7.196;2022-10-31T06:02:44;12.60;99.90
1049;DHT22;513;51.444;7.196;2022-10-31T06:05:12;12.60;99.90
1049;DHT22;513;51.444;7.196;2022-10-31T06:07:39;12.60;99.90
1049;DHT22;513;51.444;7.196;2022-10-31T06:10:07;12.60;99.90
1049;DHT22;513;51.444;7.196;2022-10-31T06:12:35;12.60;99.90
1049;DHT22;513;51.444;7.196;2022-10-31T06:15:04;12.60;99.90
1049;DHT22;513;51.444;7.196;2022-10-31T06:17:31;12.60;99.90
1049;DHT22;513;51.444;7.196;2022-10-31T06:19:57;12.60;99.90
1049;DHT22;513;51.444;7.196;2022-10-31T06:22:25;12.60;99.90
1049;DHT22;513;51.444;7.196;2022-10-31T06:24:52;12.60;99.90
1049;DHT22;513;51.444;7.196;2022-10-31T06:27:19;12.60;99.90
1049;DHT22;513;51.444;7.196;2022-10-31T06:29:45;12.60;99.90
1049;DHT22;513;51.444;7.196;2022-10-31T06:32:13;12.60;99.90
1049;DHT22;513;51.444;7.196;2022-10-31T06:34:40;12.70;99.90
1049;DHT22;513;51.444;7.196;2022-10-31T06:37:07;12.70;99.90
1049;DHT22;513;51.444;7.196;2022-10-31T06:39:35;12.70;99.90
1049;DHT22;513;51.444;7.196;2022-10-31T06:42:02;12.70;99.90
1049;DHT22;513;51.444;7.196;2022-10-31T06:44:29;12.70;99.90
1049;DHT22;513;51.444;7.196;2022-10-31T06:46:56;12.70;99.90
1049;DHT22;513;51.444;7.196;2022-10-31T06:49:23;12.70;99.90
1049;DHT22;513;51.444;7.196;2022-10-31T06:51:50;12.70;99.90
1049;DHT22;513;51.444;7.196;2022-10-31T06:54:17;12.80;99.90
1049;DHT22;513;51.444;7.196;2022-10-31T06:56:47;13.00;99.90
1049;DHT22;513;51.444;7.196;2022-10-31T06:59:14;13.20;99.90
1049;DHT22;513;51.444;7.196;2022-10-31T07:01:40;13.30;99.90
1049;DHT22;513;51.444;7.196;2022-10-31T07:04:08;13.40;99.90
1049;DHT22;513;51.444;7.196;2022-10-31T07:06:35;13.60;99.90
1049;DHT22;513;51.444;7.196;2022-10-31T07:09:01;13.70;99.90
1049;DHT22;513;51.444;7.196;2022-10-31T07:11:28;13.80;99.90
1049;DHT22;513;51.444;7.196;2022-10-31T07:13:56;13.90;99.90
1049;DHT22;513;51.444;7.196;2022-10-31T07:16:23;13.90;99.90
1049;DHT22;513;51.444;7.196;2022-10-31T07:18:49;13.90;99.90
1049;DHT22;513;51.444;7.196;2022-10-31T07:21:16;13.90;99.90
1049;DHT22;513;51.444;7.196;2022-10-31T07:23:43;13.90;99.90
1049;DHT22;513;51.444;7.196;2022-10-31T07:26:09;13.80;99.90
1049;DHT22;513;51.444;7.196;2022-10-31T07:28:36;13.70;99.90
1049;DHT22;513;51.444;7.196;2022-10-31T07:31:04;13.60;99.90
1049;DHT22;513;51.444;7.196;2022-10-31T07:33:31;13.60;99.90
1049;DHT22;513;51.444;7.196;2022-10-31T07:35:58;13.50;99.90
1049;DHT22;513;51.444;7.196;2022-10-31T07:38:24;13.50;99.90
1049;DHT22;513;51.444;7.196;2022-10-31T07:40:52;13.50;99.90
1049;DHT22;513;51.444;7.196;2022-10-31T07:43:19;13.40;99.90
1049;DHT22;513;51.444;7.196;2022-10-31T07:45:49;13.30;99.90
1049;DHT22;513;51.444;7.196;2022-10-31T07:48:17;13.20;99.90
1049;DHT22;513;51.444;7.196;2022-10-31T07:50:44;13.30;99.90
1049;DHT22;513;51.444;7.196;2022-10-31T07:53:12;13.30;99.90
1049;DHT22;513;51.444;7.196;2022-10-31T07:55:39;13.30;99.90
1049;DHT22;513;51.444;7.196;2022-10-31T07:58:07;13.30;99.90
1049;DHT22;513;51.444;7.196;2022-10-31T08:00:35;13.30;99.90
1049;DHT22;513;51.444;7.196;2022-10-31T08:03:04;13.30;99.90
1049;DHT22;513;51.444;7.196;2022-10-31T08:05:34;13.40;99.90
1049;DHT22;513;51.444;7.196;2022-10-31T08:08:01;13.40;99.90
1049;DHT22;513;51.444;7.196;2022-10-31T08:10:28;13.50;99.90
1049;DHT22;513;51.444;7.196;2022-10-31T08:12:55;13.50;99.90
1049;DHT22;513;51.444;7.196;2022-10-31T08:15:23;13.50;99.90
1049;DHT22;513;51.444;7.196;2022-10-31T08:17:49;13.60;99.90
1049;DHT22;513;51.444;7.196;2022-10-31T08:20:16;13.60;99.90
1049;DHT22;513;51.444;7.196;2022-10-31T08:22:52;13.70;99.90
1049;DHT22;513;51.444;7.196;2022-10-31T08:25:19;13.70;99.90
1049;DHT22;513;51.444;7.196;2022-10-31T08:27:48;13.80;99.90
1049;DHT22;513;51.444;7.196;2022-10-31T08:30:15;13.80;99.90
1049;DHT22;513;51.444;7.196;2022-10-31T08:32:42;13.90;99.90
1049;DHT22;513;51.444;7.196;2022-10-31T08:35:09;13.90;99.90
1049;DHT22;513;51.444;7.196;2022-10-31T08:37:35;14.00;99.90
1049;DHT22;513;51.444;7.196;2022-10-31T08:40:05;14.10;99.90
1049;DHT22;513;51.444;7.196;2022-10-31T08:42:32;14.10;99.90
1049;DHT22;513;51.444;7.196;2022-10-31T08:44:59;14.20;99.90
1049;DHT22;513;51.444;7.196;2022-10-31T08:47:25;14.10;99.90
1049;DHT22;513;51.444;7.196;2022-10-31T08:49:53;14.30;99.90
1049;DHT22;513;51.444;7.196;2022-10-31T08:52:22;14.40;99.90
1049;DHT22;513;51.444;7.196;2022-10-31T08:54:49;14.60;99.90
1049;DHT22;513;51.444;7.196;2022-10-31T08:57:17;14.60;99.90
1049;DHT22;513;51.444;7.196;2022-10-31T08:59:44;14.80;99.90
1049;DHT22;513;51.444;7.196;2022-10-31T09:02:10;14.80;99.90
1049;DHT22;513;51.444;7.196;2022-10-31T09:04:37;14.90;99.90
1049;DHT22;513;51.444;7.196;2022-10-31T09:07:03;15.10;99.90
1049;DHT22;513;51.444;7.196;2022-10-31T09:09:30;15.10;99.90
1049;DHT22;513;51.444;7.196;2022-10-31T09:11:57;15.20;99.90
1049;DHT22;513;51.444;7.196;2022-10-31T09:14:25;15.20;99.90
1049;DHT22;513;51.444;7.196;2022-10-31T09:16:52;15.30;99.90
1049;DHT22;513;51.444;7.196;2022-10-31T09:19:18;15.40;99.90
1049;DHT22;513;51.444;7.196;2022-10-31T09:21:45;15.40;99.90
1049;DHT22;513;51.444;7.196;2022-10-31T09:24:12;15.40;99.90
1049;DHT22;513;51.444;7.196;2022-10-31T09:26:38;15.40;99.90
1049;DHT22;513;51.444;7.196;2022-10-31T09:29:05;15.50;99.90
1049;DHT22;513;51.444;7.196;2022-10-31T09:31:36;15.60;99.90
1049;DHT22;513;51.444;7.196;2022-10-31T09:34:02;15.70;99.90
1049;DHT22;513;51.444;7.196;2022-10-31T09:36:29;15.80;99.90
1049;DHT22;513;51.444;7.196;2022-10-31T09:38:56;15.90;99.90
1049;DHT22;513;51.444;7.196;2022-10-31T09:41:28;16.00;99.90
1049;DHT22;513;51.444;7.196;2022-10-31T09:44:04;16.10;99.90
1049;DHT22;513;51.444;7.196;2022-10-31T09:46:41;16.10;99.90
1049;DHT22;513;51.444;7.196;2022-10-31T09:49:26;16.00;99.90
1049;DHT22;513;51.444;7.196;2022-10-31T09:52:01;16.20;99.90
1049;DHT22;513;51.444;7.196;2022-10-31T09:54:34;16.00;99.90
1049;DHT22;513;51.444;7.196;2022-10-31T09:57:02;16.10;99.90
1049;DHT22;513;51.444;7.196;2022-10-31T09:59:31;16.10;99.90
1049;DHT22;513;51.444;7.196;2022-10-31T10:02:03;16.30;99.90
1049;DHT22;513;51.444;7.196;2022-10-31T10:04:38;16.30;99.90
1049;DHT22;513;51.444;7.196;2022-10-31T10:07:13;16.30;99.90
1049;DHT22;513;51.444;7.196;2022-10-31T10:09:42;16.50;99.90
1049;DHT22;513;51.444;7.196;2022-10-31T10:12:15;16.60;99.90
1049;DHT22;513;51.444;7.196;2022-10-31T10:14:57;16.70;99.90
1049;DHT22;513;51.444;7.196;2022-10-31T10:17:36;16.60;99.90
1049;DHT22;513;51.444;7.196;2022-10-31T10:20:16;16.50;99.90
1049;DHT22;513;51.444;7.196;2022-10-31T10:22:52;16.40;99.90
1049;DHT22;513;51.444;7.196;2022-10-31T10:25:22;16.50;99.90
1049;DHT22;513;51.444;7.196;2022-10-31T10:27:58;16.60;99.90
1049;DHT22;513;51.444;7.196;2022-10-31T10:30:32;16.60;99.90
1049;DHT22;513;51.444;7.196;2022-10-31T10:33:05;16.70;99.90
1049;DHT22;513;51.444;7.196;2022-10-31T10:35:36;16.80;99.90
1049;DHT22;513;51.444;7.196;2022-10-31T10:38:13;17.00;99.90
1049;DHT22;513;51.444;7.196;2022-10-31T10:40:40;17.10;99.90
1049;DHT22;513;51.444;7.196;2022-10-31T10:43:20;17.20;99.90
1049;DHT22;513;51.444;7.196;2022-10-31T10:45:52;17.20;97.20
1049;DHT22;513;51.444;7.196;2022-10-31T10:48:48;17.20;99.90
1049;DHT22;513;51.444;7.196;2022-10-31T10:51:22;17.40;99.90
1049;DHT22;513;51.444;7.196;2022-10-31T10:54:06;17.50;99.90
1049;DHT22;513;51.444;7.196;2022-10-31T10:56:47;17.40;99.90
1049;DHT22;513;51.444;7.196;2022-10-31T10:59:17;17.50;99.90
1049;DHT22;513;51.444;7.196;2022-10-31T11:01:45;17.50;99.90
1049;DHT22;513;51.444;7.196;2022-10-31T11:04:25;17.50;99.90
1049;DHT22;513;51.444;7.196;2022-10-31T11:07:00;17.60;99.90
1049;DHT22;513;51.444;7.196;2022-10-31T11:09:26;17.60;99.90
1049;DHT22;513;51.444;7.196;2022-10-31T11:11:54;17.50;99.90
1049;DHT22;513;51.444;7.196;2022-10-31T11:14:22;17.40;99.80
1049;DHT22;513;51.444;7.196;2022-10-31T11:16:52;17.40;99.90
1049;DHT22;513;51.444;7.196;2022-10-31T11:19:23;17.40;99.90
1049;DHT22;513;51.444;7.196;2022-10-31T11:21:50;17.60;99.90
1049;DHT22;513;51.444;7.196;2022-10-31T11:24:19;17.60;99.90
1049;DHT22;513;51.444;7.196;2022-10-31T11:26:47;17.70;99.90
1049;DHT22;513;51.444;7.196;2022-10-31T11:29:16;17.60;99.90
1049;DHT22;513;51.444;7.196;2022-10-31T11:31:44;17.50;99.90
1049;DHT22;513;51.444;7.196;2022-10-31T11:34:16;17.50;99.90
1049;DHT22;513;51.444;7.196;2022-10-31T11:36:45;17.70;99.90
1049;DHT22;513;51.444;7.196;2022-10-31T11:39:16;17.90;99.90
1049;DHT22;513;51.444;7.196;2022-10-31T11:41:44;17.90;95.20
1049;DHT22;513;51.444;7.196;2022-10-31T11:44:14;17.90;97.90
1049;DHT22;513;51.444;7.196;2022-10-31T11:46:44;18.10;99.90
1049;DHT22;513;51.444;7.196;2022-10-31T11:49:15;18.00;99.00
1049;DHT22;513;51.444;7.196;2022-10-31T11:51:48;18.10;94.40
1049;DHT22;513;51.444;7.196;2022-10-31T11:54:20;18.20;99.90
1049;DHT22;513;51.444;7.196;2022-10-31T11:56:48;18.30;66.60
1049;DHT22;513;51.444;7.196;2022-10-31T11:59:22;18.30;84.70
1049;DHT22;513;51.444;7.196;2022-10-31T12:01:51;18.40;82.80
1049;DHT22;513;51.444;7.196;2022-10-31T12:04:18;18.40;46.00
1049;DHT22;513;51.444;7.196;2022-10-31T12:06:54;18.50;77.90
1049;DHT22;513;51.444;7.196;2022-10-31T12:09:25;18.50;62.10
1049;DHT22;513;51.444;7.196;2022-10-31T12:12:03;18.50;77.90
1049;DHT22;513;51.444;7.196;2022-10-31T12:14:37;18.60;82.50
1049;DHT22;513;51.444;7.196;2022-10-31T12:17:14;18.70;94.10
1049;DHT22;513;51.444;7.196;2022-10-31T12:19:45;18.70;62.10
1049;DHT22;513;51.444;7.196;2022-10-31T12:22:19;18.70;58.20
1049;DHT22;513;51.444;7.196;2022-10-31T12:24:58;18.60;47.60
1049;DHT22;513;51.444;7.196;2022-10-31T12:27:42;18.70;59.60
1049;DHT22;513;51.444;7.196;2022-10-31T12:30:17;18.80;54.90
1049;DHT22;513;51.444;7.196;2022-10-31T12:33:12;18.90;33.30
1049;DHT22;513;51.444;7.196;2022-10-31T12:35:51;19.00;35.30
1049;DHT22;513;51.444;7.196;2022-10-31T12:38:42;19.20;25.00
1049;DHT22;513;51.444;7.196;2022-10-31T12:41:24;19.30;1.00
1049;DHT22;513;51.444;7.196;2022-10-31T12:43:59;19.40;5.80
1049;DHT22;513;51.444;7.196;2022-10-31T12:46:45;19.30;1.00
1049;DHT22;513;51.444;7.196;2022-10-31T12:49:35;19.40;1.00
1049;DHT22;513;51.444;7.196;2022-10-31T12:52:15;19.40;3.00
1049;DHT22;513;51.444;7.196;2022-10-31T12:54:56;19.50;1.00
1049;DHT22;513;51.444;7.196;2022-10-31T12:57:31;19.50;1.00
1049;DHT22;513;51.444;7.196;2022-10-31T13:00:04;19.50;1.00
1049;DHT22;513;51.444;7.196;2022-10-31T13:02:35;19.40;1.00
1049;DHT22;513;51.444;7.196;2022-10-31T13:05:13;19.40;1.00
1049;DHT22;513;51.444;7.196;2022-10-31T13:07:44;19.50;1.00
1049;DHT22;513;51.444;7.196;2022-10-31T13:10:18;19.60;1.00
1049;DHT22;513;51.444;7.196;2022-10-31T13:12:49;19.80;99.90
1049;DHT22;513;51.444;7.196;2022-10-31T13:15:18;19.80;1.00
1049;DHT22;513;51.444;7.196;2022-10-31T13:17:47;19.80;99.90
1049;DHT22;513;51.444;7.196;2022-10-31T13:20:23;19.90;99.90
1049;DHT22;513;51.444;7.196;2022-10-31T13:22:53;19.90;1.00
1049;DHT22;513;51.444;7.196;2022-10-31T13:25:25;19.90;99.90
1049;DHT22;513;51.444;7.196;2022-10-31T13:27:57;19.90;99.90
1049;DHT22;513;51.444;7.196;2022-10-31T13:30:26;19.80;1.00
1049;DHT22;513;51.444;7.196;2022-10-31T13:32:58;19.80;23.50
1049;DHT22;513;51.444;7.196;2022-10-31T13:35:29;19.70;99.90
1049;DHT22;513;51.444;7.196;2022-10-31T13:38:05;19.70;99.90
1049;DHT22;513;51.444;7.196;2022-10-31T13:40:44;19.80;99.90
1049;DHT22;513;51.444;7.196;2022-10-31T13:43:20;19.70;1.00
1049;DHT22;513;51.444;7.196;2022-10-31T13:45:50;19.60;99.90
1049;DHT22;513;51.444;7.196;2022-10-31T13:48:34;19.50;99.90
1049;DHT22;513;51.444;7.196;2022-10-31T13:51:03;19.50;99.90
1049;DHT22;513;51.444;7.196;2022-10-31T13:53:36;19.60;1.00
1049;DHT22;513;51.444;7.196;2022-10-31T13:56:13;19.60;99.90
1049;DHT22;513;51.444;7.196;2022-10-31T13:58:42;19.60;99.90
1049;DHT22;513;51.444;7.196;2022-10-31T14:01:20;19.60;1.00
1049;DHT22;513;51.444;7.196;2022-10-31T14:03:55;19.70;99.90
1049;DHT22;513;51.444;7.196;2022-10-31T14:06:23;19.80;99.90
1049;DHT22;513;51.444;7.196;2022-10-31T14:09:01;19.70;99.90
1049;DHT22;513;51.444;7.196;2022-10-31T14:11:29;19.70;1.00
1049;DHT22;513;51.444;7.196;2022-10-31T14:13:57;19.70;1.00
1049;DHT22;513;51.444;7.196;2022-10-31T14:16:26;19.70;99.90
1049;DHT22;513;51.444;7.196;2022-10-31T14:18:58;19.70;1.00
1049;DHT22;513;51.444;7.196;2022-10-31T14:21:28;19.70;99.90
1049;DHT22;513;51.444;7.196;2022-10-31T14:23:55;19.80;99.90
1049;DHT22;513;51.444;7.196;2022-10-31T14:26:36;19.80;99.90
1049;DHT22;513;51.444;7.196;2022-10-31T14:29:22;19.70;99.90
1049;DHT22;513;51.444;7.196;2022-10-31T14:31:55;19.60;99.90
1049;DHT22;513;51.444;7.196;2022-10-31T14:34:24;19.70;99.90
1049;DHT22;513;51.444;7.196;2022-10-31T14:37:02;19.60;99.90
1049;DHT22;513;51.444;7.196;2022-10-31T14:39:32;19.60;41.50
1049;DHT22;513;51.444;7.196;2022-10-31T14:42:12;19.60;1.00
1049;DHT22;513;51.444;7.196;2022-10-31T14:44:56;19.50;1.00
1049;DHT22;513;51.444;7.196;2022-10-31T14:47:35;19.50;99.90
1049;DHT22;513;51.444;7.196;2022-10-31T14:52:56;19.40;99.90
1049;DHT22;513;51.444;7.196;2022-10-31T14:55:24;19.40;99.90
1049;DHT22;513;51.444;7.196;2022-10-31T14:57:56;19.20;99.90
1049;DHT22;513;51.444;7.196;2022-10-31T15:00:23;19.30;99.90
1049;DHT22;513;51.444;7.196;2022-10-31T15:05:55;19.10;99.90
1049;DHT22;513;51.444;7.196;2022-10-31T15:08:29;19.00;99.90
1049;DHT22;513;51.444;7.196;2022-10-31T15:10:57;19.10;99.90
1049;DHT22;513;51.444;7.196;2022-10-31T15:13:28;19.10;99.90
1049;DHT22;513;51.444;7.196;2022-10-31T15:16:08;19.10;73.90
1049;DHT22;513;51.444;7.196;2022-10-31T15:18:44;19.10;99.90
1049;DHT22;513;51.444;7.196;2022-10-31T15:21:14;19.10;99.90
1049;DHT22;513;51.444;7.196;2022-10-31T15:23:42;19.10;99.90
1049;DHT22;513;51.444;7.196;2022-10-31T15:26:18;19.10;99.90
1049;DHT22;513;51.444;7.196;2022-10-31T15:28:57;19.10;99.90
1049;DHT22;513;51.444;7.196;2022-10-31T15:31:26;19.10;99.90
1049;DHT22;513;51.444;7.196;2022-10-31T15:33:53;18.90;99.90
1049;DHT22;513;51.444;7.196;2022-10-31T15:36:24;18.90;99.90
1049;DHT22;513;51.444;7.196;2022-10-31T15:38:51;18.80;99.90
1049;DHT22;513;51.444;7.196;2022-10-31T15:41:26;18.80;99.90
1049;DHT22;513;51.444;7.196;2022-10-31T15:43:58;18.80;99.90
1049;DHT22;513;51.444;7.196;2022-10-31T15:46:25;18.80;99.90
1049;DHT22;513;51.444;7.196;2022-10-31T15:48:53;18.70;99.90
1049;DHT22;513;51.444;7.196;2022-10-31T15:51:26;18.60;1.00
1049;DHT22;513;51.444;7.196;2022-10-31T15:53:55;18.70;1.00
1049;DHT22;513;51.444;7.196;2022-10-31T15:56:24;18.70;99.90
1049;DHT22;513;51.444;7.196;2022-10-31T15:58:52;18.60;99.90
1049;DHT22;513;51.444;7.196;2022-10-31T16:01:23;18.60;99.90
1049;DHT22;513;51.444;7.196;2022-10-31T16:04:01;18.40;99.90
1049;DHT22;513;51.444;7.196;2022-10-31T16:06:28;18.40;99.90
1049;DHT22;513;51.444;7.196;2022-10-31T16:08:55;18.30;99.90
1049;DHT22;513;51.444;7.196;2022-10-31T16:11:24;18.20;99.90
1049;DHT22;513;51.444;7.196;2022-10-31T16:13:57;18.20;99.90
1049;DHT22;513;51.444;7.196;2022-10-31T16:16:25;18.20;1.00
1049;DHT22;513;51.444;7.196;2022-10-31T16:18:54;18.10;1.00
1049;DHT22;513;51.444;7.196;2022-10-31T16:21:27;18.00;1.00
1049;DHT22;513;51.444;7.196;2022-10-31T16:23:59;18.00;1.00
1049;DHT22;513;51.444;7.196;2022-10-31T16:26:27;18.00;1.00
1049;DHT22;513;51.444;7.196;2022-10-31T16:28:55;18.00;1.00
1049;DHT22;513;51.444;7.196;2022-10-31T16:31:30;17.90;1.00
1049;DHT22;513;51.444;7.196;2022-10-31T16:34:13;17.90;1.00
1049;DHT22;513;51.444;7.196;2022-10-31T16:36:40;17.80;1.00
1049;DHT22;513;51.444;7.196;2022-10-31T16:39:07;17.60;1.00
1049;DHT22;513;51.444;7.196;2022-10-31T16:41:37;17.60;1.00
1049;DHT22;513;51.444;7.196;2022-10-31T16:44:17;17.40;1.00
1049;DHT22;513;51.444;7.196;2022-10-31T16:46:46;17.40;63.60
1049;DHT22;513;51.444;7.196;2022-10-31T16:49:13;17.40;1.00